White Hills, Arizona
Current Conditions -  °F | °C
As of 2:35 PM on Friday 19 Dec 2014 (Local Time) from KBVU Reporting Station
Clear Clear  
Wind Chill: 54°   Ceiling: Unl
Heat Index: 54°   Visibility: 10mi
Dew Point: 43°   Wind: 6mph
Humidity: 67%   Direction: 70°ENE
Pressure: 30.19"   Gusts: NA
Location:  35.8707°N, 114.659°W
Report Text: KBVU 192135Z AUTO 07005KT 10SM CLR 12/06 A3019 RMK AO2
Loading
Personal Weather Stations






























Interactive Weather Map New forecast layout! Learn more

10-Day Weather Forecast

Advertisements
Track Severe Weather on mobile